Time;durP1;ratioP1;P1;durP2;ratioP2;P2;SDS_P1;SDS_P2;PMS_P1;PMS_P2;Temp;Humidity;BMP_temperature;BMP_pressure;BME280_temperature;BME280_humidity;BME280_pressure;Samples;Min_cycle;Max_cycle;Signal;HPM_P1;HPM_P2
2022/11/22 00:02:27;;;;;;;11.23;5.63;;;3.00;99.90;3.50;92004.00;;;;7399618;19;20624;-76
2022/11/22 00:04:54;;;;;;;11.60;6.37;;;3.00;99.90;3.50;91994.00;;;;7398158;19;20125;-76
2022/11/22 00:07:28;;;;;;;11.90;6.23;;;3.00;99.90;3.40;91994.00;;;;7397692;19;20204;-76
2022/11/22 00:09:55;;;;;;;12.57;8.77;;;3.00;99.90;3.70;91979.00;;;;7396179;19;20592;-76
2022/11/22 00:12:23;;;;;;;10.63;6.93;;;3.00;99.90;3.60;91870.00;;;;7397423;19;20580;-76
2022/11/22 00:14:56;;;;;;;30.63;17.73;;;3.00;99.90;3.70;91922.00;;;;7397819;19;20129;-76
2022/11/22 00:17:30;;;;;;;19.60;11.77;;;3.00;99.90;3.40;91977.00;;;;7398420;19;20161;-76
2022/11/22 00:20:12;;;;;;;16.43;11.20;;;3.00;99.90;3.80;91987.00;;;;7397297;19;20460;-77
2022/11/22 00:22:43;;;;;;;13.93;10.20;;;3.00;99.90;3.70;91886.00;;;;7399373;19;20240;-76
2022/11/22 00:25:17;;;;;;;10.20;6.87;;;3.00;99.90;3.80;91864.00;;;;7399577;19;20145;-76
2022/11/22 00:27:44;;;;;;;15.80;6.93;;;3.00;99.90;3.70;91904.00;;;;7399645;19;20124;-76
2022/11/22 00:30:11;;;;;;;12.77;5.97;;;3.10;99.90;3.70;91977.00;;;;7399241;19;20125;-76
2022/11/22 00:32:46;;;;;;;12.07;7.27;;;3.10;99.90;3.50;91906.00;;;;7397225;19;20131;-75
2022/11/22 00:35:13;;;;;;;13.30;7.07;;;3.10;99.90;3.70;91998.00;;;;7397957;19;20164;-76
2022/11/22 00:37:41;;;;;;;8.13;5.57;;;3.10;99.90;3.80;91902.00;;;;7397393;19;20137;-76
2022/11/22 00:40:15;;;;;;;8.37;4.97;;;3.10;99.90;3.90;91888.00;;;;7396791;19;20170;-76
2022/11/22 00:42:42;;;;;;;7.23;5.47;;;3.20;99.90;4.00;91928.00;;;;7395034;19;20129;-76
2022/11/22 00:45:09;;;;;;;8.27;4.73;;;3.20;99.90;4.00;92000.00;;;;7397339;19;20170;-76
2022/11/22 00:47:43;;;;;;;7.93;2.63;;;3.30;99.90;4.10;92005.00;;;;7399311;19;20125;-76
2022/11/22 00:50:11;;;;;;;6.73;2.50;;;3.40;99.90;4.50;92028.00;;;;7397053;19;20601;-77
2022/11/22 00:52:38;;;;;;;3.43;2.30;;;3.60;99.90;4.40;91890.00;;;;7396609;19;20147;-76
2022/11/22 00:55:12;;;;;;;8.07;3.57;;;3.70;99.90;4.30;92009.00;;;;7398948;19;20146;-76
2022/11/22 00:57:39;;;;;;;7.77;2.90;;;3.70;99.90;4.40;91956.00;;;;7394920;19;20125;-76
2022/11/22 01:00:07;;;;;;;4.70;2.83;;;3.70;99.90;4.40;92043.00;;;;7396995;19;20460;-76
2022/11/22 01:02:41;;;;;;;7.87;2.30;;;3.70;99.90;4.00;91970.00;;;;7395766;19;20129;-76
2022/11/22 01:05:08;;;;;;;10.27;2.43;;;3.70;99.90;4.50;92050.00;;;;7399226;19;20129;-76
2022/11/22 01:07:35;;;;;;;9.30;2.43;;;3.80;99.90;4.50;91973.00;;;;7397847;19;20140;-76
2022/11/22 01:10:10;;;;;;;6.97;2.33;;;3.80;99.90;4.50;91956.00;;;;7396878;19;20200;-77
2022/11/22 01:12:37;;;;;;;6.03;1.87;;;3.80;1.00;4.40;91936.00;;;;7394875;19;20212;-77
2022/11/22 01:15:05;;;;;;;10.80;2.03;;;3.70;99.90;4.40;92057.00;;;;7395553;19;20144;-77
2022/11/22 01:17:52;;;;;;;5.43;2.00;;;3.70;99.90;4.40;92028.00;;;;7403035;19;20653;-77
2022/11/22 01:20:26;;;;;;;9.50;1.90;;;3.80;99.90;4.30;92000.00;;;;7404372;19;20155;-77
2022/11/22 01:23:00;;;;;;;7.73;1.70;;;3.80;99.90;4.40;91982.00;;;;7404482;19;20517;-77
2022/11/22 01:25:27;;;;;;;14.50;2.07;;;3.80;99.90;4.30;92063.00;;;;7404554;19;20145;-77
2022/11/22 01:27:54;;;;;;;6.30;1.57;;;3.70;99.90;4.40;92051.00;;;;7403778;19;20165;-76
2022/11/22 01:30:30;;;;;;;5.60;1.77;;;3.70;99.90;4.40;92056.00;;;;7404199;19;20212;-76
2022/11/22 01:32:57;;;;;;;2.83;1.60;;;3.80;99.90;4.50;92057.00;;;;7403355;19;20121;-77
2022/11/22 01:35:24;;;;;;;7.87;2.40;;;3.80;99.90;4.60;92044.00;;;;7402842;19;20142;-76
2022/11/22 01:37:58;;;;;;;7.77;2.17;;;3.90;99.90;4.50;91969.00;;;;7405634;19;20129;-77
2022/11/22 01:40:25;;;;;;;10.80;1.80;;;3.90;99.90;4.60;91938.00;;;;7402151;19;20148;-77
2022/11/22 01:42:56;;;;;;;6.53;2.23;;;3.90;99.90;4.50;91916.00;;;;7403410;19;20145;-77
2022/11/22 01:45:30;;;;;;;7.13;1.70;;;3.90;99.90;4.70;92071.00;;;;7404836;19;20125;-76
2022/11/22 01:48:30;;;;;;;9.50;1.87;;;3.90;99.90;4.50;92079.00;;;;7403532;19;20141;-76
2022/11/22 01:51:27;;;;;;;7.63;1.90;;;3.90;99.90;4.60;92083.00;;;;7403167;19;20145;-77
2022/11/22 01:54:01;;;;;;;15.87;2.50;;;3.90;99.90;4.40;92015.00;;;;7399658;19;20141;-77
2022/11/22 01:56:37;;;;;;;9.13;2.27;;;3.90;99.90;4.40;92027.00;;;;7401919;19;20148;-77
2022/11/22 01:59:12;;;;;;;13.73;2.40;;;3.90;99.90;4.40;92012.00;;;;7403251;19;20132;-77
2022/11/22 02:01:46;;;;;;;7.57;2.00;;;3.90;38.60;4.50;92050.00;;;;7401807;19;20757;-78
2022/11/22 02:04:17;;;;;;;14.50;2.13;;;4.00;1.00;4.70;92066.00;;;;7402456;19;20129;-79
2022/11/22 02:07:07;;;;;;;13.00;2.20;;;4.00;1.00;4.40;92067.00;;;;7402150;19;20137;-78
2022/11/22 02:09:43;;;;;;;15.37;2.70;;;4.00;1.00;4.50;92068.00;;;;7402317;19;20600;-79
2022/11/22 02:12:11;;;;;;;14.87;2.43;;;3.90;1.00;4.50;92073.00;;;;7402564;19;20133;-77
2022/11/22 02:14:40;;;;;;;11.23;2.00;;;3.90;1.00;4.50;92069.00;;;;7400043;19;20136;-77
2022/11/22 02:17:30;;;;;;;12.83;2.17;;;3.90;1.00;4.30;92066.00;;;;7400742;19;20149;-76
2022/11/22 02:20:06;;;;;;;10.63;2.20;;;3.80;1.00;4.40;92058.00;;;;7403710;19;20129;-77
2022/11/22 02:23:33;;;;;;;12.87;2.50;;;3.80;99.90;4.40;92083.00;;;;7401592;19;20133;-77
2022/11/22 02:26:02;;;;;;;5.27;2.00;;;3.80;99.90;4.40;92063.00;;;;7401517;19;20204;-77
2022/11/22 02:28:38;;;;;;;11.53;2.20;;;3.80;99.90;4.40;92068.00;;;;7401234;19;20156;-77
2022/11/22 02:31:05;;;;;;;11.67;2.13;;;3.80;99.90;4.30;92056.00;;;;7402243;19;20151;-76
2022/11/22 02:33:32;;;;;;;14.17;2.63;;;3.70;99.90;4.20;92082.00;;;;7399562;19;20156;-77
2022/11/22 02:36:10;;;;;;;10.77;2.10;;;3.70;99.90;4.20;92091.00;;;;7401561;19;20622;-76
2022/11/22 02:38:37;;;;;;;10.47;1.97;;;3.60;99.90;4.20;92113.00;;;;7401368;19;20501;-77
2022/11/22 02:41:10;;;;;;;15.53;3.10;;;3.70;99.90;4.20;92118.00;;;;7400849;19;20504;-77
2022/11/22 02:43:46;;;;;;;10.63;2.47;;;3.70;99.90;4.30;92108.00;;;;7401216;19;20137;-77
2022/11/22 02:46:19;;;;;;;12.50;2.57;;;3.60;99.90;4.10;92125.00;;;;7400880;19;20137;-77
2022/11/22 02:48:53;;;;;;;11.33;2.87;;;3.70;99.90;4.20;92109.00;;;;7402808;19;20125;-77
2022/11/22 02:51:20;;;;;;;8.63;2.07;;;3.70;99.90;4.20;92099.00;;;;7401404;19;20140;-76
2022/11/22 02:53:49;;;;;;;11.17;2.10;;;3.70;99.90;4.10;92104.00;;;;7398704;19;20472;-79
2022/11/22 02:56:23;;;;;;;15.63;2.50;;;3.60;99.90;4.40;92118.00;;;;7401048;19;20145;-77
2022/11/22 02:58:50;;;;;;;11.23;2.40;;;3.70;99.90;4.30;92121.00;;;;7400846;19;20496;-77
2022/11/22 03:01:17;;;;;;;8.00;2.00;;;3.70;99.90;4.20;92125.00;;;;7401847;19;20521;-79
2022/11/22 03:03:51;;;;;;;9.67;1.90;;;3.70;99.90;4.00;92105.00;;;;7401626;19;20457;-77
2022/11/22 03:06:18;;;;;;;19.97;2.57;;;3.60;99.90;4.10;92135.00;;;;7401628;19;20133;-77
2022/11/22 03:08:47;;;;;;;13.03;2.17;;;3.60;99.90;4.20;92093.00;;;;7402519;19;20133;-80
2022/11/22 03:11:23;;;;;;;11.33;2.13;;;3.50;99.90;4.00;92126.00;;;;7400547;19;20125;-77
2022/11/22 03:13:50;;;;;;;21.00;2.07;;;3.50;99.90;3.90;92117.00;;;;7398654;19;20189;-78
2022/11/22 03:16:17;;;;;;;11.93;2.17;;;3.50;99.90;3.80;92120.00;;;;7401725;19;20481;-77
2022/11/22 03:18:57;;;;;;;25.50;2.43;;;3.50;99.90;3.90;92128.00;;;;7399710;19;20667;-77
2022/11/22 03:21:24;;;;;;;8.67;2.30;;;3.50;99.90;3.80;92149.00;;;;7399676;19;20727;-77
2022/11/22 03:23:58;;;;;;;10.63;2.10;;;3.50;99.90;3.80;92145.00;;;;7400062;19;20168;-79
2022/11/22 03:26:25;;;;;;;10.33;1.83;;;3.40;99.90;3.70;92139.00;;;;7399484;19;20639;-78
2022/11/22 03:28:52;;;;;;;7.60;1.80;;;3.40;99.90;3.50;92133.00;;;;7399865;19;20595;-78
2022/11/22 03:31:25;;;;;;;10.50;1.90;;;3.30;99.90;3.60;92141.00;;;;7399409;19;20686;-79
2022/11/22 03:33:53;;;;;;;13.90;2.07;;;3.20;99.90;3.60;92150.00;;;;7399322;19;20153;-78
2022/11/22 03:36:20;;;;;;;7.13;2.30;;;3.20;1.00;3.70;92130.00;;;;7399405;19;20628;-78
2022/11/22 03:38:53;;;;;;;15.37;2.33;;;3.20;1.00;3.70;92137.00;;;;7400130;19;20619;-79
2022/11/22 03:41:20;;;;;;;10.70;2.03;;;3.20;1.00;3.40;92161.00;;;;7398844;19;20728;-78
2022/11/22 03:43:47;;;;;;;6.63;2.03;;;3.10;1.00;3.30;92154.00;;;;7398757;19;20611;-78
2022/11/22 03:46:20;;;;;;;9.30;2.07;;;3.00;1.00;3.40;92159.00;;;;7400548;19;20599;-79
2022/11/22 03:48:47;;;;;;;10.63;1.77;;;3.00;1.00;3.20;92155.00;;;;7398128;19;20178;-77
2022/11/22 03:51:14;;;;;;;8.50;1.97;;;2.90;1.00;3.40;92156.00;;;;7400354;19;20622;-78
2022/11/22 03:53:48;;;;;;;13.77;2.43;;;2.80;1.00;3.30;92150.00;;;;7397100;19;20140;-77
2022/11/22 03:56:15;;;;;;;13.50;2.50;;;2.80;1.00;3.20;92142.00;;;;7398208;19;20144;-77
2022/11/22 03:58:42;;;;;;;15.57;1.97;;;2.70;1.00;3.10;92138.00;;;;7398295;19;20199;-78
2022/11/22 04:01:16;;;;;;;18.30;2.50;;;2.70;1.00;3.40;92149.00;;;;7399097;19;20200;-78
2022/11/22 04:03:43;;;;;;;14.00;2.30;;;2.70;1.00;3.40;92163.00;;;;7398594;19;20496;-78
2022/11/22 04:06:10;;;;;;;12.63;3.10;;;2.80;1.00;3.50;92156.00;;;;7398064;19;20634;-78
2022/11/22 04:08:43;;;;;;;11.50;2.30;;;2.90;1.00;3.50;92155.00;;;;7398971;19;20137;-78
2022/11/22 04:11:11;;;;;;;18.10;2.40;;;2.90;1.00;3.50;92151.00;;;;7398038;19;20145;-77
2022/11/22 04:16:36;;;;;;;15.63;2.37;;;3.00;1.00;3.30;92140.00;;;;7398907;19;20125;-77
2022/11/22 04:19:10;;;;;;;14.33;2.37;;;2.90;1.00;3.30;92157.00;;;;7397898;19;20137;-77
2022/11/22 04:21:43;;;;;;;11.60;2.43;;;2.90;1.00;3.30;92138.00;;;;7398152;19;20196;-78
2022/11/22 04:27:03;;;;;;;18.47;2.80;;;2.80;1.00;3.10;92142.00;;;;7398070;19;20504;-77
2022/11/22 04:29:30;;;;;;;9.23;2.27;;;2.70;1.00;3.20;92141.00;;;;7399725;19;20618;-77
2022/11/22 04:34:51;;;;;;;9.93;2.13;;;2.70;1.00;3.20;92152.00;;;;7399045;19;20129;-78
2022/11/22 04:37:18;;;;;;;13.27;3.30;;;2.70;1.00;3.30;92138.00;;;;7398945;19;20538;-77
2022/11/22 04:39:45;;;;;;;14.80;2.30;;;2.70;1.00;3.10;92122.00;;;;7397550;19;20196;-77
2022/11/22 04:45:06;;;;;;;8.53;2.10;;;2.50;1.00;3.00;92145.00;;;;7395334;19;20204;-78
2022/11/22 04:47:58;;;;;;;14.20;2.57;;;2.50;1.00;2.90;92153.00;;;;7398733;19;20148;-78
2022/11/22 04:53:20;;;;;;;12.57;2.30;;;2.60;1.00;3.20;92135.00;;;;7403999;19;20480;-77
2022/11/22 04:55:47;;;;;;;10.73;2.57;;;2.60;1.00;3.40;92158.00;;;;7404459;19;20490;-78
2022/11/22 04:58:14;;;;;;;15.33;2.93;;;2.70;1.00;3.30;92164.00;;;;7404763;19;20155;-78
2022/11/22 05:00:48;;;;;;;11.00;2.53;;;2.80;1.00;3.30;92154.00;;;;7403914;19;20200;-78
2022/11/22 05:03:16;;;;;;;16.83;2.77;;;2.80;1.00;3.10;92139.00;;;;7404393;19;20635;-78
2022/11/22 05:05:44;;;;;;;15.97;2.50;;;2.70;1.00;3.00;92156.00;;;;7404954;19;20161;-78
2022/11/22 05:08:18;;;;;;;15.27;2.40;;;2.70;1.00;3.00;92151.00;;;;7404873;19;20140;-79
2022/11/22 05:10:57;;;;;;;16.13;2.20;;;2.60;1.00;2.90;92146.00;;;;7402988;19;20218;-79
2022/11/22 05:13:34;;;;;;;11.27;2.10;;;2.50;1.00;2.70;92149.00;;;;7402793;19;20526;-78
2022/11/22 05:16:04;;;;;;;9.33;1.87;;;2.40;1.00;2.70;92142.00;;;;7403930;19;20157;-78
2022/11/22 05:18:57;;;;;;;11.87;1.93;;;2.30;1.00;2.70;92139.00;;;;7402100;19;20162;-77
2022/11/22 05:21:34;;;;;;;11.10;2.07;;;2.30;1.00;2.70;92114.00;;;;7405197;19;20618;-78
2022/11/22 05:24:08;;;;;;;8.40;1.90;;;2.20;1.00;2.50;92129.00;;;;7405487;19;20160;-78
2022/11/22 05:26:35;;;;;;;10.60;2.13;;;2.10;1.00;2.40;92135.00;;;;7404009;19;20141;-77
2022/11/22 05:29:09;;;;;;;6.10;1.87;;;2.10;1.00;2.50;92149.00;;;;7405243;19;20121;-78
2022/11/22 05:31:43;;;;;;;6.67;1.90;;;2.10;1.00;2.40;92148.00;;;;7404778;19;20152;-77
2022/11/22 05:34:17;;;;;;;6.27;2.17;;;2.00;1.00;2.30;92136.00;;;;7401912;19;20145;-78
2022/11/22 05:36:50;;;;;;;6.23;2.03;;;2.00;1.00;2.40;92151.00;;;;7403418;19;20142;-78
2022/11/22 05:39:17;;;;;;;14.97;2.73;;;1.90;1.00;2.30;92118.00;;;;7403182;19;20600;-78
2022/11/22 05:41:54;;;;;;;6.93;1.90;;;1.90;1.00;2.20;92145.00;;;;7402975;19;20133;-78
2022/11/22 05:44:28;;;;;;;12.00;2.23;;;1.80;1.00;2.10;92137.00;;;;7400769;19;20144;-75
2022/11/22 05:46:55;;;;;;;9.80;1.83;;;1.70;1.00;2.30;92149.00;;;;7404296;19;20133;-75
2022/11/22 05:49:22;;;;;;;15.67;1.60;;;1.80;1.00;2.20;92135.00;;;;7402127;19;20152;-76
2022/11/22 05:51:55;;;;;;;9.17;1.70;;;1.80;1.00;2.20;92125.00;;;;7402304;19;20145;-77
2022/11/22 05:54:23;;;;;;;10.63;2.10;;;1.80;1.00;2.30;92153.00;;;;7397545;19;20141;-76
2022/11/22 05:56:50;;;;;;;16.87;1.80;;;1.80;1.00;2.30;92153.00;;;;7400466;19;20209;-74
2022/11/22 05:59:24;;;;;;;5.77;1.77;;;1.80;1.00;2.40;92161.00;;;;7399719;19;20604;-76
2022/11/22 06:01:51;;;;;;;10.20;1.80;;;1.90;1.00;2.40;92154.00;;;;7398749;19;20136;-76
2022/11/22 06:04:18;;;;;;;9.90;1.90;;;2.00;1.00;2.60;92161.00;;;;7397620;19;20498;-77
2022/11/22 06:06:52;;;;;;;8.00;1.90;;;2.10;1.00;2.50;92157.00;;;;7399194;19;20139;-78
2022/11/22 06:09:19;;;;;;;8.87;1.43;;;2.10;1.00;2.50;92155.00;;;;7396344;19;20216;-77
2022/11/22 06:11:46;;;;;;;12.83;2.27;;;2.00;1.00;2.40;92168.00;;;;7397583;19;20144;-77
2022/11/22 06:14:20;;;;;;;12.10;2.13;;;2.00;1.00;2.40;92173.00;;;;7395635;19;20179;-78
2022/11/22 06:16:56;;;;;;;17.57;3.60;;;2.00;2.30;2.60;92174.00;;;;7397842;19;20128;-78
2022/11/22 06:19:37;;;;;;;13.83;2.57;;;2.00;3.20;2.50;92185.00;;;;7397310;19;20168;-78
2022/11/22 06:22:04;;;;;;;11.63;2.00;;;2.10;36.70;2.60;92179.00;;;;7397554;19;20148;-79
2022/11/22 06:24:38;;;;;;;13.77;1.80;;;2.10;35.30;2.70;92184.00;;;;7397816;19;20152;-77
2022/11/22 06:27:05;;;;;;;9.03;2.23;;;2.00;26.20;2.50;92179.00;;;;7398570;19;20588;-77
2022/11/22 06:29:32;;;;;;;9.40;2.10;;;2.00;24.10;2.50;92152.00;;;;7398873;19;20587;-77
2022/11/22 06:32:06;;;;;;;14.07;2.13;;;2.00;11.60;2.60;92185.00;;;;7398866;19;20140;-78
2022/11/22 06:34:33;;;;;;;10.87;2.20;;;2.00;13.50;2.50;92192.00;;;;7396734;19;20129;-76
2022/11/22 06:37:00;;;;;;;14.80;2.20;;;2.10;1.00;2.60;92205.00;;;;7397376;19;20603;-76
2022/11/22 06:39:34;;;;;;;10.10;1.77;;;2.10;1.00;2.70;92218.00;;;;7396745;19;20147;-77
2022/11/22 06:42:01;;;;;;;7.27;1.93;;;2.10;1.00;2.50;92214.00;;;;7395300;19;20129;-76
2022/11/22 06:44:28;;;;;;;12.80;2.00;;;2.10;1.00;2.50;92227.00;;;;7398116;19;20125;-77
2022/11/22 06:47:02;;;;;;;16.43;3.57;;;2.10;1.00;2.40;92221.00;;;;7396612;19;20140;-76
2022/11/22 06:49:29;;;;;;;13.57;2.77;;;2.00;1.00;2.40;92237.00;;;;7397273;19;20173;-77
2022/11/22 06:51:57;;;;;;;12.37;4.17;;;2.00;1.00;2.50;92231.00;;;;7397089;19;20144;-76
2022/11/22 06:54:31;;;;;;;11.00;2.37;;;2.00;1.00;2.60;92227.00;;;;7394374;19;20144;-77
2022/11/22 06:56:58;;;;;;;20.23;5.83;;;2.00;1.00;2.50;92243.00;;;;7397754;19;20148;-77
2022/11/22 06:59:25;;;;;;;11.90;3.20;;;2.00;1.00;2.50;92225.00;;;;7396360;19;20133;-77
2022/11/22 07:01:59;;;;;;;14.57;3.13;;;2.10;1.00;2.50;92235.00;;;;7398127;19;20472;-77
2022/11/22 07:04:32;;;;;;;8.23;2.63;;;2.10;1.00;2.50;92242.00;;;;7397328;19;20128;-78
2022/11/22 07:07:26;;;;;;;11.33;2.07;;;2.10;1.00;2.60;92241.00;;;;7396302;19;20141;-79
2022/11/22 07:09:53;;;;;;;13.03;2.37;;;2.10;1.00;2.60;92243.00;;;;7395778;19;20137;-78
2022/11/22 07:12:27;;;;;;;16.30;3.50;;;2.10;1.00;2.70;92275.00;;;;7397573;19;20467;-77
2022/11/22 07:14:54;;;;;;;16.60;2.50;;;2.20;1.00;2.70;92264.00;;;;7394492;19;20141;-78
2022/11/22 07:17:21;;;;;;;10.50;2.13;;;2.20;1.00;3.10;92257.00;;;;7394630;19;20212;-77
2022/11/22 07:19:55;;;;;;;9.10;2.10;;;2.30;1.00;3.00;92248.00;;;;7396578;19;20502;-76
2022/11/22 07:22:22;;;;;;;11.37;2.00;;;2.30;1.00;3.20;92258.00;;;;7395383;19;20165;-76
2022/11/22 07:24:49;;;;;;;11.00;2.13;;;2.30;99.90;3.00;92264.00;;;;7395216;19;20749;-76
2022/11/22 07:27:23;;;;;;;11.30;2.60;;;2.30;99.90;2.90;92246.00;;;;7395929;19;20145;-76
2022/11/22 07:29:50;;;;;;;11.40;1.97;;;2.30;99.90;3.00;92260.00;;;;7394962;19;20137;-76
2022/11/22 07:32:17;;;;;;;12.20;1.93;;;2.30;99.90;2.90;92264.00;;;;7396361;19;20129;-76
2022/11/22 07:34:51;;;;;;;8.97;2.07;;;2.30;99.90;3.00;92266.00;;;;7394348;19;20133;-76
2022/11/22 07:37:18;;;;;;;10.27;1.87;;;2.40;99.90;3.00;92293.00;;;;7394327;19;20149;-76
2022/11/22 07:39:51;;;;;;;7.73;1.93;;;2.40;99.90;2.90;92281.00;;;;7395107;19;20631;-76
2022/11/22 07:42:25;;;;;;;7.13;1.87;;;2.40;99.90;3.10;92285.00;;;;7394822;19;20667;-76
2022/11/22 07:44:52;;;;;;;10.67;2.30;;;2.40;73.80;3.20;92276.00;;;;7395146;19;20608;-76
2022/11/22 07:47:19;;;;;;;12.80;2.00;;;2.50;1.00;3.10;92286.00;;;;7395736;19;20165;-75
2022/11/22 07:49:53;;;;;;;8.20;1.90;;;2.40;8.20;3.10;92289.00;;;;7392220;19;20154;-76
2022/11/22 07:52:21;;;;;;;10.80;1.80;;;2.40;67.10;3.00;92299.00;;;;7394245;19;20473;-76
2022/11/22 07:54:48;;;;;;;8.83;2.17;;;2.40;99.90;2.90;92287.00;;;;7391800;19;20473;-77
2022/11/22 07:57:23;;;;;;;6.47;1.80;;;2.40;99.90;3.20;92292.00;;;;7392349;19;20235;-77
2022/11/22 07:59:50;;;;;;;17.20;2.40;;;2.50;99.90;3.10;92301.00;;;;7393386;19;20469;-77
2022/11/22 08:02:17;;;;;;;12.30;1.67;;;2.50;83.70;3.30;92315.00;;;;7395001;19;20467;-77
2022/11/22 08:04:52;;;;;;;5.73;1.70;;;2.50;65.00;3.30;92297.00;;;;7392851;19;20140;-76
2022/11/22 08:07:19;;;;;;;7.33;1.53;;;2.50;32.60;3.20;92318.00;;;;7393899;19;20145;-77
2022/11/22 08:09:46;;;;;;;6.83;2.27;;;2.60;56.90;3.30;92326.00;;;;7390696;19;20128;-77
2022/11/22 08:12:20;;;;;;;10.10;1.70;;;2.60;35.50;3.50;92301.00;;;;7393636;19;20161;-76
2022/11/22 08:14:47;;;;;;;6.70;1.70;;;2.60;11.30;3.50;92314.00;;;;7390964;19;20192;-77
2022/11/22 08:17:14;;;;;;;7.73;1.60;;;2.70;1.00;3.40;92327.00;;;;7392101;19;20152;-76
2022/11/22 08:19:52;;;;;;;7.57;1.77;;;2.70;1.00;3.60;92324.00;;;;7393282;19;20487;-77
2022/11/22 08:22:19;;;;;;;7.83;1.73;;;2.80;1.00;3.60;92317.00;;;;7392944;19;20145;-77
2022/11/22 08:24:46;;;;;;;8.07;1.67;;;2.80;1.00;3.60;92315.00;;;;7392519;19;20223;-77
2022/11/22 08:27:20;;;;;;;6.30;2.00;;;2.80;1.00;3.50;92325.00;;;;7395098;19;20758;-76
2022/11/22 08:29:47;;;;;;;8.13;1.97;;;2.90;1.00;3.60;92313.00;;;;7391909;19;20170;-76
2022/11/22 08:32:14;;;;;;;11.37;1.90;;;2.90;1.00;4.00;92316.00;;;;7392731;19;20137;-75
2022/11/22 08:34:48;;;;;;;10.67;1.90;;;2.90;1.00;3.80;92309.00;;;;7388064;19;20145;-75
2022/11/22 08:37:15;;;;;;;5.93;1.90;;;3.00;1.00;3.80;92302.00;;;;7392468;19;20170;-76
2022/11/22 08:39:42;;;;;;;6.47;1.67;;;3.00;1.00;3.70;92321.00;;;;7391155;19;20533;-76
2022/11/22 08:42:16;;;;;;;7.80;1.70;;;3.00;1.00;3.70;92310.00;;;;7394027;19;20665;-77
2022/11/22 08:44:43;;;;;;;7.47;1.43;;;3.00;1.00;3.60;92292.00;;;;7391932;19;20145;-77
2022/11/22 08:47:10;;;;;;;6.30;1.90;;;3.10;1.00;4.00;92301.00;;;;7391901;19;20152;-77
2022/11/22 08:49:44;;;;;;;9.80;1.50;;;3.10;99.90;3.90;92292.00;;;;7391751;19;20137;-77
2022/11/22 08:52:11;;;;;;;7.10;2.13;;;3.10;99.90;3.90;92301.00;;;;7389831;19;20618;-76
2022/11/22 08:54:39;;;;;;;6.33;1.33;;;3.20;99.90;4.10;92293.00;;;;7388464;19;20811;-76
2022/11/22 08:57:12;;;;;;;8.23;2.10;;;3.20;99.90;4.00;92278.00;;;;7391005;19;20583;-77
2022/11/22 08:59:39;;;;;;;9.80;2.00;;;3.20;99.90;4.10;92281.00;;;;7390705;19;20140;-77
2022/11/22 09:02:08;;;;;;;8.87;1.70;;;3.30;99.90;4.00;92290.00;;;;7390668;19;20141;-76
2022/11/22 09:04:41;;;;;;;5.53;1.47;;;3.30;99.90;4.10;92300.00;;;;7390754;19;20725;-77
2022/11/22 09:07:09;;;;;;;4.23;1.37;;;3.30;1.00;4.00;92293.00;;;;7391083;19;20141;-76
2022/11/22 09:09:56;;;;;;;8.40;2.00;;;3.30;1.00;4.00;92291.00;;;;7390024;19;20607;-76
2022/11/22 09:12:30;;;;;;;8.87;1.50;;;3.40;1.00;4.00;92292.00;;;;7392874;19;20535;-76
2022/11/22 09:14:57;;;;;;;5.47;1.23;;;3.40;99.90;4.00;92252.00;;;;7388526;19;20176;-76
2022/11/22 09:17:24;;;;;;;2.97;1.20;;;3.40;99.90;4.00;92296.00;;;;7390366;19;20490;-77
2022/11/22 09:20:06;;;;;;;2.37;1.10;;;3.40;99.90;4.10;92285.00;;;;7390379;19;20636;-76
2022/11/22 09:22:33;;;;;;;5.17;1.43;;;3.50;99.90;4.30;92276.00;;;;7392382;19;20120;-76
2022/11/22 09:25:08;;;;;;;5.40;1.17;;;3.50;99.90;4.50;92288.00;;;;7392216;19;20246;-76
2022/11/22 09:27:35;;;;;;;5.43;1.30;;;3.50;1.00;4.40;92252.00;;;;7390214;19;20153;-76
2022/11/22 09:30:03;;;;;;;6.83;1.30;;;3.60;1.00;4.50;92270.00;;;;7391796;19;21015;-76
2022/11/22 09:32:37;;;;;;;3.23;1.30;;;3.60;1.00;4.50;92294.00;;;;7391230;19;20487;-75
2022/11/22 09:35:04;;;;;;;5.03;1.50;;;3.60;1.00;4.60;92300.00;;;;7389321;19;20140;-75
2022/11/22 09:37:32;;;;;;;8.80;1.27;;;3.70;52.90;4.60;92314.00;;;;7396837;19;20137;-75
2022/11/22 09:40:07;;;;;;;2.73;1.20;;;3.70;1.00;4.30;92305.00;;;;7397784;19;20128;-76
2022/11/22 09:43:02;;;;;;;7.37;1.40;;;3.80;1.00;4.70;92310.00;;;;7397716;19;20136;-76
2022/11/22 09:45:58;;;;;;;4.77;1.40;;;3.80;1.00;4.70;92309.00;;;;7397667;19;20515;-75
2022/11/22 09:48:49;;;;;;;6.60;1.30;;;3.80;99.90;4.60;92308.00;;;;7397275;19;20145;-76
2022/11/22 09:51:36;;;;;;;5.40;1.57;;;3.80;99.90;4.70;92298.00;;;;7397297;19;20149;-74
2022/11/22 09:54:24;;;;;;;11.53;1.50;;;3.90;99.90;4.70;92295.00;;;;7398195;19;20132;-75
2022/11/22 09:57:03;;;;;;;4.13;1.20;;;3.90;99.90;4.90;92314.00;;;;7398860;19;20133;-76
2022/11/22 09:59:39;;;;;;;4.90;1.33;;;3.90;99.90;4.90;92300.00;;;;7398482;19;20133;-74
2022/11/22 10:02:26;;;;;;;4.27;1.30;;;4.00;99.90;5.00;92317.00;;;;7397715;19;20131;-75
2022/11/22 10:05:01;;;;;;;5.63;1.47;;;4.00;99.90;4.90;92312.00;;;;7397530;19;20156;-76
2022/11/22 10:07:46;;;;;;;7.73;1.60;;;4.00;99.90;5.00;92322.00;;;;7397191;19;20144;-76
2022/11/22 10:10:21;;;;;;;8.80;1.70;;;4.10;99.90;5.00;92326.00;;;;7396652;19;20128;-76
2022/11/22 10:13:11;;;;;;;3.47;1.20;;;4.10;99.90;5.20;92327.00;;;;7397538;19;20609;-76
2022/11/22 10:16:23;;;;;;;5.13;1.23;;;4.10;99.90;5.20;92320.00;;;;7394209;19;20143;-76
2022/11/22 10:19:19;;;;;;;6.43;1.40;;;4.10;99.90;5.10;92340.00;;;;7394875;19;20213;-75
2022/11/22 10:21:46;;;;;;;6.03;1.43;;;4.10;99.90;5.00;92332.00;;;;7397847;19;20137;-76
2022/11/22 10:24:20;;;;;;;5.37;1.37;;;4.20;99.90;5.20;92318.00;;;;7398198;19;20159;-76
2022/11/22 10:26:47;;;;;;;4.80;1.50;;;4.20;99.90;5.40;92339.00;;;;7397658;19;20152;-76
2022/11/22 10:29:54;;;;;;;5.07;1.20;;;4.30;99.90;5.30;92338.00;;;;7397716;19;20133;-76
2022/11/22 10:32:36;;;;;;;7.10;1.10;;;4.30;99.90;5.50;92354.00;;;;7396448;19;20147;-76
2022/11/22 10:35:15;;;;;;;4.97;1.60;;;;;5.50;92354.00;;;;7395367;19;20644;-76
2022/11/22 10:38:06;;;;;;;4.40;1.40;;;4.40;1.00;5.40;92354.00;;;;7398239;19;20129;-77
2022/11/22 10:41:17;;;;;;;5.80;1.50;;;4.50;1.00;5.60;92353.00;;;;7396990;19;20133;-76
2022/11/22 10:44:18;;;;;;;5.77;1.33;;;4.50;1.00;5.80;92352.00;;;;7394092;19;20141;-76
2022/11/22 10:47:15;;;;;;;3.17;1.10;;;4.60;1.00;5.70;92345.00;;;;7396190;19;20152;-76
2022/11/22 10:50:22;;;;;;;3.70;1.40;;;4.50;1.00;5.50;92351.00;;;;7393385;19;20132;-75
2022/11/22 10:53:23;;;;;;;5.87;1.53;;;4.50;1.00;5.80;92346.00;;;;7397272;19;20184;-76
2022/11/22 10:56:37;;;;;;;3.90;1.13;;;4.60;1.00;5.60;92332.00;;;;7394045;19;20148;-76
2022/11/22 10:59:48;;;;;;;7.23;1.53;;;4.70;1.00;5.80;92329.00;;;;7392911;19;20800;-75
2022/11/22 11:02:45;;;;;;;5.17;1.50;;;4.80;1.00;6.10;92329.00;;;;7394931;19;20148;-75
2022/11/22 11:05:19;;;;;;;4.87;1.20;;;4.70;1.00;5.90;92331.00;;;;7395867;19;20702;-75
2022/11/22 11:07:54;;;;;;;5.80;1.57;;;4.80;1.00;5.90;92332.00;;;;7395626;19;20155;-76
2022/11/22 11:10:44;;;;;;;5.73;1.30;;;4.80;1.00;5.90;92328.00;;;;7393628;19;20172;-75
2022/11/22 11:13:30;;;;;;;4.17;1.30;;;4.80;1.00;5.80;92352.00;;;;7395396;19;20196;-75
2022/11/22 11:16:03;;;;;;;5.77;1.37;;;4.70;1.00;5.70;92348.00;;;;7395697;19;20133;-76
2022/11/22 11:19:21;;;;;;;3.87;1.30;;;4.70;1.00;5.80;92319.00;;;;7393961;19;20528;-75
2022/11/22 11:22:07;;;;;;;8.47;1.40;;;4.80;1.00;5.80;92351.00;;;;7397044;19;20188;-76
2022/11/22 11:24:41;;;;;;;6.00;1.57;;;4.70;1.00;5.80;92341.00;;;;7396541;19;20152;-76
2022/11/22 11:27:15;;;;;;;4.60;1.43;;;4.70;99.90;5.80;92318.00;;;;7397233;19;20137;-75
2022/11/22 11:29:56;;;;;;;4.53;1.40;;;4.60;1.00;5.70;92346.00;;;;7396136;19;20132;-75
2022/11/22 11:32:23;;;;;;;11.33;1.47;;;4.60;1.00;5.60;92351.00;;;;7397089;19;20124;-76
2022/11/22 11:35:06;;;;;;;7.07;1.67;;;4.70;1.00;5.60;92345.00;;;;7394727;19;20145;-75
2022/11/22 11:37:38;;;;;;;5.20;1.20;;;4.60;1.00;5.60;92347.00;;;;7395241;19;20591;-75
2022/11/22 11:40:31;;;;;;;10.53;1.67;;;4.70;1.00;5.70;92328.00;;;;7397807;19;20144;-76
2022/11/22 11:43:22;;;;;;;5.37;1.27;;;4.60;1.00;5.70;92322.00;;;;7397261;19;20208;-75
2022/11/22 11:46:17;;;;;;;4.33;1.23;;;4.60;1.00;5.80;92325.00;;;;7394132;19;20185;-76
2022/11/22 11:48:45;;;;;;;6.27;1.80;;;4.70;99.90;5.90;92308.00;;;;7393719;19;20674;-75
2022/11/22 11:51:36;;;;;;;5.37;1.57;;;4.60;1.00;5.90;92318.00;;;;7395453;19;20597;-75
2022/11/22 11:54:39;;;;;;;6.53;2.03;;;4.60;1.00;5.90;92317.00;;;;7397359;19;20132;-76
2022/11/22 11:57:27;;;;;;;5.03;1.20;;;4.70;1.00;6.00;92327.00;;;;7393521;19;20770;-75